sensor_id;sensor_type;location;lat;lon;timestamp;P1;durP1;ratioP1;P2;durP2;ratioP2
71734;SDS011;59577;52.122;5.406;2024-03-07T00:00:05;17.58;;;9.27;;
71734;SDS011;59577;52.122;5.406;2024-03-07T00:02:45;17.30;;;8.23;;
71734;SDS011;59577;52.122;5.406;2024-03-07T00:05:19;17.30;;;8.00;;
71734;SDS011;59577;52.122;5.406;2024-03-07T00:07:48;23.77;;;8.93;;
71734;SDS011;59577;52.122;5.406;2024-03-07T00:10:15;18.92;;;9.63;;
71734;SDS011;59577;52.122;5.406;2024-03-07T00:12:43;15.98;;;8.57;;
71734;SDS011;59577;52.122;5.406;2024-03-07T00:15:11;18.87;;;10.00;;
71734;SDS011;59577;52.122;5.406;2024-03-07T00:17:39;19.42;;;9.70;;
71734;SDS011;59577;52.122;5.406;2024-03-07T00:20:07;20.38;;;10.15;;
71734;SDS011;59577;52.122;5.406;2024-03-07T00:22:35;21.00;;;8.93;;
71734;SDS011;59577;52.122;5.406;2024-03-07T00:25:03;20.55;;;9.32;;
71734;SDS011;59577;52.122;5.406;2024-03-07T00:27:33;20.33;;;9.40;;
71734;SDS011;59577;52.122;5.406;2024-03-07T00:29:59;22.40;;;10.43;;
71734;SDS011;59577;52.122;5.406;2024-03-07T00:32:26;25.70;;;11.13;;
71734;SDS011;59577;52.122;5.406;2024-03-07T00:35:02;21.80;;;10.25;;
71734;SDS011;59577;52.122;5.406;2024-03-07T00:37:29;21.00;;;8.73;;
71734;SDS011;59577;52.122;5.406;2024-03-07T00:39:57;25.70;;;11.07;;
71734;SDS011;59577;52.122;5.406;2024-03-07T00:42:24;25.98;;;10.82;;
71734;SDS011;59577;52.122;5.406;2024-03-07T00:44:50;29.45;;;11.98;;
71734;SDS011;59577;52.122;5.406;2024-03-07T00:47:17;25.50;;;12.02;;
71734;SDS011;59577;52.122;5.406;2024-03-07T00:49:46;24.20;;;10.52;;
71734;SDS011;59577;52.122;5.406;2024-03-07T00:52:13;25.67;;;10.33;;
71734;SDS011;59577;52.122;5.406;2024-03-07T00:54:40;22.25;;;10.15;;
71734;SDS011;59577;52.122;5.406;2024-03-07T00:57:07;28.70;;;10.98;;
71734;SDS011;59577;52.122;5.406;2024-03-07T00:59:34;21.65;;;10.18;;
71734;SDS011;59577;52.122;5.406;2024-03-07T01:02:01;21.92;;;9.95;;
71734;SDS011;59577;52.122;5.406;2024-03-07T01:04:28;19.07;;;9.33;;
71734;SDS011;59577;52.122;5.406;2024-03-07T01:06:57;24.10;;;10.32;;
71734;SDS011;59577;52.122;5.406;2024-03-07T01:09:27;24.48;;;10.45;;
71734;SDS011;59577;52.122;5.406;2024-03-07T01:11:56;21.30;;;10.27;;
71734;SDS011;59577;52.122;5.406;2024-03-07T01:14:23;24.10;;;10.23;;
71734;SDS011;59577;52.122;5.406;2024-03-07T01:16:50;27.70;;;10.20;;
71734;SDS011;59577;52.122;5.406;2024-03-07T01:19:16;21.90;;;9.23;;
71734;SDS011;59577;52.122;5.406;2024-03-07T01:21:43;20.73;;;9.52;;
71734;SDS011;59577;52.122;5.406;2024-03-07T01:24:10;25.45;;;10.23;;
71734;SDS011;59577;52.122;5.406;2024-03-07T01:26:37;25.27;;;10.85;;
71734;SDS011;59577;52.122;5.406;2024-03-07T01:29:03;24.43;;;9.87;;
71734;SDS011;59577;52.122;5.406;2024-03-07T01:31:33;21.70;;;9.88;;
71734;SDS011;59577;52.122;5.406;2024-03-07T01:34:00;16.15;;;9.15;;
71734;SDS011;59577;52.122;5.406;2024-03-07T01:36:26;21.75;;;9.63;;
71734;SDS011;59577;52.122;5.406;2024-03-07T01:38:53;24.27;;;8.77;;
71734;SDS011;59577;52.122;5.406;2024-03-07T01:41:19;20.43;;;9.70;;
71734;SDS011;59577;52.122;5.406;2024-03-07T01:43:46;20.00;;;9.15;;
71734;SDS011;59577;52.122;5.406;2024-03-07T01:46:13;21.00;;;9.18;;
71734;SDS011;59577;52.122;5.406;2024-03-07T01:48:40;23.42;;;10.90;;
71734;SDS011;59577;52.122;5.406;2024-03-07T01:51:07;20.33;;;9.60;;
71734;SDS011;59577;52.122;5.406;2024-03-07T01:53:35;19.70;;;9.23;;
71734;SDS011;59577;52.122;5.406;2024-03-07T01:56:02;25.60;;;9.70;;
71734;SDS011;59577;52.122;5.406;2024-03-07T01:58:30;23.48;;;10.07;;
71734;SDS011;59577;52.122;5.406;2024-03-07T02:01:00;16.27;;;8.10;;
71734;SDS011;59577;52.122;5.406;2024-03-07T02:03:27;19.58;;;9.20;;
71734;SDS011;59577;52.122;5.406;2024-03-07T02:05:54;19.77;;;9.33;;
71734;SDS011;59577;52.122;5.406;2024-03-07T02:08:21;28.50;;;10.45;;
71734;SDS011;59577;52.122;5.406;2024-03-07T02:10:47;18.52;;;8.85;;
71734;SDS011;59577;52.122;5.406;2024-03-07T02:13:15;21.50;;;9.73;;
71734;SDS011;59577;52.122;5.406;2024-03-07T02:15:42;20.83;;;9.57;;
71734;SDS011;59577;52.122;5.406;2024-03-07T02:18:09;22.50;;;8.57;;
71734;SDS011;59577;52.122;5.406;2024-03-07T02:20:37;18.98;;;8.45;;
71734;SDS011;59577;52.122;5.406;2024-03-07T02:23:04;18.83;;;8.65;;
71734;SDS011;59577;52.122;5.406;2024-03-07T02:25:30;20.67;;;9.02;;
71734;SDS011;59577;52.122;5.406;2024-03-07T02:27:58;15.35;;;7.30;;
71734;SDS011;59577;52.122;5.406;2024-03-07T02:30:25;23.57;;;9.80;;
71734;SDS011;59577;52.122;5.406;2024-03-07T02:32:51;17.38;;;8.90;;
71734;SDS011;59577;52.122;5.406;2024-03-07T02:35:21;19.77;;;8.90;;
71734;SDS011;59577;52.122;5.406;2024-03-07T02:37:50;23.42;;;9.80;;
71734;SDS011;59577;52.122;5.406;2024-03-07T02:40:16;20.67;;;10.05;;
71734;SDS011;59577;52.122;5.406;2024-03-07T02:42:43;19.10;;;9.17;;
71734;SDS011;59577;52.122;5.406;2024-03-07T02:45:09;20.80;;;9.82;;
71734;SDS011;59577;52.122;5.406;2024-03-07T02:47:41;18.05;;;10.15;;
71734;SDS011;59577;52.122;5.406;2024-03-07T02:50:10;21.13;;;9.70;;
71734;SDS011;59577;52.122;5.406;2024-03-07T02:52:37;24.48;;;10.48;;
71734;SDS011;59577;52.122;5.406;2024-03-07T02:55:05;26.37;;;10.80;;
71734;SDS011;59577;52.122;5.406;2024-03-07T02:57:32;25.75;;;9.98;;
71734;SDS011;59577;52.122;5.406;2024-03-07T02:59:59;24.02;;;10.98;;
71734;SDS011;59577;52.122;5.406;2024-03-07T03:02:25;20.70;;;9.68;;
71734;SDS011;59577;52.122;5.406;2024-03-07T03:04:52;23.80;;;10.48;;
71734;SDS011;59577;52.122;5.406;2024-03-07T03:07:18;23.20;;;9.97;;
71734;SDS011;59577;52.122;5.406;2024-03-07T03:09:45;23.10;;;10.73;;
71734;SDS011;59577;52.122;5.406;2024-03-07T03:12:12;22.85;;;10.05;;
71734;SDS011;59577;52.122;5.406;2024-03-07T03:14:39;22.13;;;9.57;;
71734;SDS011;59577;52.122;5.406;2024-03-07T03:17:06;23.77;;;10.77;;
71734;SDS011;59577;52.122;5.406;2024-03-07T03:19:35;23.03;;;9.43;;
71734;SDS011;59577;52.122;5.406;2024-03-07T03:22:02;21.20;;;9.85;;
71734;SDS011;59577;52.122;5.406;2024-03-07T03:24:29;23.00;;;9.82;;
71734;SDS011;59577;52.122;5.406;2024-03-07T03:26:57;25.10;;;10.88;;
71734;SDS011;59577;52.122;5.406;2024-03-07T03:29:23;24.23;;;9.60;;
71734;SDS011;59577;52.122;5.406;2024-03-07T03:31:50;22.30;;;10.93;;
71734;SDS011;59577;52.122;5.406;2024-03-07T03:34:16;19.48;;;9.77;;
71734;SDS011;59577;52.122;5.406;2024-03-07T03:36:43;25.98;;;10.52;;
71734;SDS011;59577;52.122;5.406;2024-03-07T03:39:10;19.50;;;9.20;;
71734;SDS011;59577;52.122;5.406;2024-03-07T03:41:39;23.60;;;10.30;;
71734;SDS011;59577;52.122;5.406;2024-03-07T03:44:06;23.93;;;10.60;;
71734;SDS011;59577;52.122;5.406;2024-03-07T03:46:33;25.50;;;10.45;;
71734;SDS011;59577;52.122;5.406;2024-03-07T03:48:59;26.70;;;10.57;;
71734;SDS011;59577;52.122;5.406;2024-03-07T03:51:26;25.77;;;10.80;;
71734;SDS011;59577;52.122;5.406;2024-03-07T03:53:53;25.48;;;10.23;;
71734;SDS011;59577;52.122;5.406;2024-03-07T03:56:19;26.93;;;11.37;;
71734;SDS011;59577;52.122;5.406;2024-03-07T03:58:46;25.38;;;11.07;;
71734;SDS011;59577;52.122;5.406;2024-03-07T04:01:13;20.77;;;9.20;;
71734;SDS011;59577;52.122;5.406;2024-03-07T04:03:41;24.98;;;11.13;;
71734;SDS011;59577;52.122;5.406;2024-03-07T04:06:08;22.85;;;10.30;;
71734;SDS011;59577;52.122;5.406;2024-03-07T04:08:35;17.77;;;8.77;;
71734;SDS011;59577;52.122;5.406;2024-03-07T04:11:03;22.23;;;9.13;;
71734;SDS011;59577;52.122;5.406;2024-03-07T04:13:31;18.55;;;9.50;;
71734;SDS011;59577;52.122;5.406;2024-03-07T04:15:58;21.73;;;10.18;;
71734;SDS011;59577;52.122;5.406;2024-03-07T04:18:25;23.73;;;10.50;;
71734;SDS011;59577;52.122;5.406;2024-03-07T04:20:52;32.37;;;10.27;;
71734;SDS011;59577;52.122;5.406;2024-03-07T04:23:20;19.02;;;8.77;;
71734;SDS011;59577;52.122;5.406;2024-03-07T04:25:47;20.52;;;9.57;;
71734;SDS011;59577;52.122;5.406;2024-03-07T04:28:13;20.40;;;9.40;;
71734;SDS011;59577;52.122;5.406;2024-03-07T04:30:40;25.17;;;10.15;;
71734;SDS011;59577;52.122;5.406;2024-03-07T04:33:06;19.23;;;8.60;;
71734;SDS011;59577;52.122;5.406;2024-03-07T04:35:33;23.30;;;10.35;;
71734;SDS011;59577;52.122;5.406;2024-03-07T04:38:00;25.92;;;10.77;;
71734;SDS011;59577;52.122;5.406;2024-03-07T04:40:26;27.08;;;10.82;;
71734;SDS011;59577;52.122;5.406;2024-03-07T04:42:53;25.27;;;10.77;;
71734;SDS011;59577;52.122;5.406;2024-03-07T04:45:19;30.37;;;12.33;;
71734;SDS011;59577;52.122;5.406;2024-03-07T04:47:47;21.05;;;9.48;;
71734;SDS011;59577;52.122;5.406;2024-03-07T04:50:15;22.17;;;9.93;;
71734;SDS011;59577;52.122;5.406;2024-03-07T04:52:45;23.50;;;10.25;;
71734;SDS011;59577;52.122;5.406;2024-03-07T04:55:13;25.52;;;11.38;;
71734;SDS011;59577;52.122;5.406;2024-03-07T04:57:40;22.57;;;11.27;;
71734;SDS011;59577;52.122;5.406;2024-03-07T05:00:08;17.17;;;8.57;;
71734;SDS011;59577;52.122;5.406;2024-03-07T05:02:44;21.15;;;9.77;;
71734;SDS011;59577;52.122;5.406;2024-03-07T05:05:12;24.95;;;11.05;;
71734;SDS011;59577;52.122;5.406;2024-03-07T05:07:40;20.70;;;9.98;;
71734;SDS011;59577;52.122;5.406;2024-03-07T05:10:06;26.17;;;11.30;;
71734;SDS011;59577;52.122;5.406;2024-03-07T05:12:33;28.38;;;11.00;;
71734;SDS011;59577;52.122;5.406;2024-03-07T05:15:00;19.33;;;9.35;;
71734;SDS011;59577;52.122;5.406;2024-03-07T05:17:27;24.08;;;10.35;;
71734;SDS011;59577;52.122;5.406;2024-03-07T05:19:55;19.65;;;9.80;;
71734;SDS011;59577;52.122;5.406;2024-03-07T05:22:21;25.30;;;10.23;;
71734;SDS011;59577;52.122;5.406;2024-03-07T05:24:51;25.90;;;9.68;;
71734;SDS011;59577;52.122;5.406;2024-03-07T05:27:18;26.60;;;10.25;;
71734;SDS011;59577;52.122;5.406;2024-03-07T05:29:44;23.77;;;9.93;;
71734;SDS011;59577;52.122;5.406;2024-03-07T05:32:21;20.88;;;9.10;;
71734;SDS011;59577;52.122;5.406;2024-03-07T05:34:54;29.33;;;11.13;;
71734;SDS011;59577;52.122;5.406;2024-03-07T05:37:21;22.25;;;10.05;;
71734;SDS011;59577;52.122;5.406;2024-03-07T05:39:48;27.02;;;10.85;;
71734;SDS011;59577;52.122;5.406;2024-03-07T05:42:15;24.75;;;10.68;;
71734;SDS011;59577;52.122;5.406;2024-03-07T05:44:42;26.15;;;11.18;;
71734;SDS011;59577;52.122;5.406;2024-03-07T05:47:09;22.93;;;9.73;;
71734;SDS011;59577;52.122;5.406;2024-03-07T05:49:36;22.58;;;9.70;;
71734;SDS011;59577;52.122;5.406;2024-03-07T05:52:05;22.48;;;10.07;;
71734;SDS011;59577;52.122;5.406;2024-03-07T05:54:32;24.80;;;10.23;;
71734;SDS011;59577;52.122;5.406;2024-03-07T05:56:59;26.08;;;11.60;;
71734;SDS011;59577;52.122;5.406;2024-03-07T05:59:26;25.10;;;10.47;;
71734;SDS011;59577;52.122;5.406;2024-03-07T06:01:54;22.77;;;10.27;;
71734;SDS011;59577;52.122;5.406;2024-03-07T06:04:22;23.55;;;11.52;;
71734;SDS011;59577;52.122;5.406;2024-03-07T06:06:48;30.15;;;11.15;;
71734;SDS011;59577;52.122;5.406;2024-03-07T06:09:15;24.20;;;10.05;;
71734;SDS011;59577;52.122;5.406;2024-03-07T06:11:47;22.70;;;9.53;;
71734;SDS011;59577;52.122;5.406;2024-03-07T06:14:15;20.10;;;10.15;;
71734;SDS011;59577;52.122;5.406;2024-03-07T06:16:42;22.88;;;9.90;;
71734;SDS011;59577;52.122;5.406;2024-03-07T06:19:10;19.23;;;9.88;;
71734;SDS011;59577;52.122;5.406;2024-03-07T06:21:38;23.15;;;9.68;;
71734;SDS011;59577;52.122;5.406;2024-03-07T06:24:06;28.27;;;11.40;;
71734;SDS011;59577;52.122;5.406;2024-03-07T06:26:36;24.77;;;9.93;;
71734;SDS011;59577;52.122;5.406;2024-03-07T06:29:04;27.25;;;10.63;;
71734;SDS011;59577;52.122;5.406;2024-03-07T06:31:34;24.38;;;11.02;;
71734;SDS011;59577;52.122;5.406;2024-03-07T06:34:03;24.42;;;11.65;;
71734;SDS011;59577;52.122;5.406;2024-03-07T06:36:30;27.23;;;12.10;;
71734;SDS011;59577;52.122;5.406;2024-03-07T06:38:56;32.28;;;11.73;;
71734;SDS011;59577;52.122;5.406;2024-03-07T06:41:23;24.58;;;11.75;;
71734;SDS011;59577;52.122;5.406;2024-03-07T06:43:51;27.60;;;11.88;;
71734;SDS011;59577;52.122;5.406;2024-03-07T06:46:19;25.73;;;11.05;;
71734;SDS011;59577;52.122;5.406;2024-03-07T06:48:46;26.70;;;11.40;;
71734;SDS011;59577;52.122;5.406;2024-03-07T06:51:13;28.50;;;11.98;;
71734;SDS011;59577;52.122;5.406;2024-03-07T06:53:39;27.75;;;13.18;;
71734;SDS011;59577;52.122;5.406;2024-03-07T06:56:06;28.33;;;12.02;;
71734;SDS011;59577;52.122;5.406;2024-03-07T06:58:32;34.72;;;13.30;;
71734;SDS011;59577;52.122;5.406;2024-03-07T07:00:59;37.17;;;15.40;;
71734;SDS011;59577;52.122;5.406;2024-03-07T07:03:27;39.70;;;16.58;;
71734;SDS011;59577;52.122;5.406;2024-03-07T07:05:58;41.03;;;17.63;;
71734;SDS011;59577;52.122;5.406;2024-03-07T07:08:25;42.55;;;17.58;;
71734;SDS011;59577;52.122;5.406;2024-03-07T07:10:52;36.53;;;16.25;;
71734;SDS011;59577;52.122;5.406;2024-03-07T07:13:20;31.90;;;15.67;;
71734;SDS011;59577;52.122;5.406;2024-03-07T07:15:48;35.22;;;15.75;;
71734;SDS011;59577;52.122;5.406;2024-03-07T07:18:15;27.90;;;14.57;;
71734;SDS011;59577;52.122;5.406;2024-03-07T07:20:42;28.55;;;14.70;;
71734;SDS011;59577;52.122;5.406;2024-03-07T07:23:09;34.70;;;15.60;;
71734;SDS011;59577;52.122;5.406;2024-03-07T07:25:36;27.93;;;13.77;;
71734;SDS011;59577;52.122;5.406;2024-03-07T07:28:03;31.08;;;15.45;;
71734;SDS011;59577;52.122;5.406;2024-03-07T07:30:34;31.10;;;14.60;;
71734;SDS011;59577;52.122;5.406;2024-03-07T07:33:00;28.17;;;14.32;;
71734;SDS011;59577;52.122;5.406;2024-03-07T07:35:27;29.95;;;14.55;;
71734;SDS011;59577;52.122;5.406;2024-03-07T07:37:53;26.70;;;15.00;;
71734;SDS011;59577;52.122;5.406;2024-03-07T07:40:22;32.72;;;14.32;;
71734;SDS011;59577;52.122;5.406;2024-03-07T07:42:51;26.40;;;13.60;;
71734;SDS011;59577;52.122;5.406;2024-03-07T07:45:19;29.23;;;14.05;;
71734;SDS011;59577;52.122;5.406;2024-03-07T07:47:48;26.52;;;13.57;;
71734;SDS011;59577;52.122;5.406;2024-03-07T07:50:16;27.67;;;13.60;;
71734;SDS011;59577;52.122;5.406;2024-03-07T07:55:14;32.85;;;14.88;;
71734;SDS011;59577;52.122;5.406;2024-03-07T07:57:42;24.13;;;13.20;;
71734;SDS011;59577;52.122;5.406;2024-03-07T08:00:11;25.95;;;13.38;;
71734;SDS011;59577;52.122;5.406;2024-03-07T08:02:38;22.87;;;12.83;;
71734;SDS011;59577;52.122;5.406;2024-03-07T08:05:04;23.30;;;13.55;;
71734;SDS011;59577;52.122;5.406;2024-03-07T08:07:35;23.52;;;12.65;;
71734;SDS011;59577;52.122;5.406;2024-03-07T08:10:02;21.88;;;12.10;;
71734;SDS011;59577;52.122;5.406;2024-03-07T08:12:28;22.48;;;13.15;;
71734;SDS011;59577;52.122;5.406;2024-03-07T08:14:55;20.33;;;12.47;;
71734;SDS011;59577;52.122;5.406;2024-03-07T08:17:22;21.10;;;12.63;;
71734;SDS011;59577;52.122;5.406;2024-03-07T08:19:49;22.40;;;12.55;;
71734;SDS011;59577;52.122;5.406;2024-03-07T08:22:16;19.02;;;11.75;;
71734;SDS011;59577;52.122;5.406;2024-03-07T08:24:43;19.10;;;12.35;;
71734;SDS011;59577;52.122;5.406;2024-03-07T08:27:09;18.77;;;12.43;;
71734;SDS011;59577;52.122;5.406;2024-03-07T08:29:37;20.80;;;12.55;;
71734;SDS011;59577;52.122;5.406;2024-03-07T08:32:05;19.83;;;12.80;;
71734;SDS011;59577;52.122;5.406;2024-03-07T08:34:33;19.45;;;12.48;;
71734;SDS011;59577;52.122;5.406;2024-03-07T08:36:59;18.00;;;11.13;;
71734;SDS011;59577;52.122;5.406;2024-03-07T08:39:26;17.90;;;12.17;;
71734;SDS011;59577;52.122;5.406;2024-03-07T08:41:52;19.63;;;11.98;;
71734;SDS011;59577;52.122;5.406;2024-03-07T08:44:19;16.70;;;11.68;;
71734;SDS011;59577;52.122;5.406;2024-03-07T08:46:46;19.08;;;11.43;;
71734;SDS011;59577;52.122;5.406;2024-03-07T08:49:12;19.33;;;11.45;;
71734;SDS011;59577;52.122;5.406;2024-03-07T08:51:43;18.40;;;10.67;;
71734;SDS011;59577;52.122;5.406;2024-03-07T08:54:10;16.65;;;10.60;;
71734;SDS011;59577;52.122;5.406;2024-03-07T08:56:36;15.07;;;10.48;;
71734;SDS011;59577;52.122;5.406;2024-03-07T08:59:03;14.88;;;10.68;;
71734;SDS011;59577;52.122;5.406;2024-03-07T09:01:30;13.70;;;9.07;;
71734;SDS011;59577;52.122;5.406;2024-03-07T09:03:57;16.60;;;10.13;;
71734;SDS011;59577;52.122;5.406;2024-03-07T09:06:26;14.07;;;10.15;;
71734;SDS011;59577;52.122;5.406;2024-03-07T09:08:52;16.20;;;9.98;;
71734;SDS011;59577;52.122;5.406;2024-03-07T09:11:19;13.30;;;9.40;;
71734;SDS011;59577;52.122;5.406;2024-03-07T09:13:46;15.45;;;10.15;;
71734;SDS011;59577;52.122;5.406;2024-03-07T09:16:12;14.83;;;9.50;;
71734;SDS011;59577;52.122;5.406;2024-03-07T09:18:39;15.02;;;9.45;;
71734;SDS011;59577;52.122;5.406;2024-03-07T09:21:05;12.15;;;8.85;;
71734;SDS011;59577;52.122;5.406;2024-03-07T09:23:32;14.48;;;8.57;;
71734;SDS011;59577;52.122;5.406;2024-03-07T09:25:59;12.63;;;8.65;;
71734;SDS011;59577;52.122;5.406;2024-03-07T09:28:26;12.83;;;9.23;;
71734;SDS011;59577;52.122;5.406;2024-03-07T09:30:52;11.35;;;8.80;;
71734;SDS011;59577;52.122;5.406;2024-03-07T09:33:18;10.88;;;8.70;;
71734;SDS011;59577;52.122;5.406;2024-03-07T09:35:46;10.95;;;8.77;;
71734;SDS011;59577;52.122;5.406;2024-03-07T09:38:13;11.60;;;8.57;;
71734;SDS011;59577;52.122;5.406;2024-03-07T09:40:39;10.87;;;9.03;;
71734;SDS011;59577;52.122;5.406;2024-03-07T09:43:06;10.68;;;8.80;;
71734;SDS011;59577;52.122;5.406;2024-03-07T09:45:36;11.82;;;8.45;;
71734;SDS011;59577;52.122;5.406;2024-03-07T09:48:04;12.70;;;9.35;;
71734;SDS011;59577;52.122;5.406;2024-03-07T09:50:35;13.20;;;8.77;;
71734;SDS011;59577;52.122;5.406;2024-03-07T09:53:02;12.63;;;8.90;;
71734;SDS011;59577;52.122;5.406;2024-03-07T09:55:31;11.30;;;9.05;;
71734;SDS011;59577;52.122;5.406;2024-03-07T09:57:58;14.82;;;9.57;;
71734;SDS011;59577;52.122;5.406;2024-03-07T10:00:27;11.95;;;8.93;;
71734;SDS011;59577;52.122;5.406;2024-03-07T10:05:29;14.03;;;9.60;;
71734;SDS011;59577;52.122;5.406;2024-03-07T10:07:58;13.80;;;9.10;;
71734;SDS011;59577;52.122;5.406;2024-03-07T10:10:25;14.90;;;9.65;;
71734;SDS011;59577;52.122;5.406;2024-03-07T10:12:52;11.35;;;8.82;;
71734;SDS011;59577;52.122;5.406;2024-03-07T10:15:27;17.90;;;9.88;;
71734;SDS011;59577;52.122;5.406;2024-03-07T10:17:54;13.37;;;8.67;;
71734;SDS011;59577;52.122;5.406;2024-03-07T10:20:21;13.35;;;9.18;;
71734;SDS011;59577;52.122;5.406;2024-03-07T10:22:49;11.85;;;8.68;;
71734;SDS011;59577;52.122;5.406;2024-03-07T10:25:17;14.13;;;8.73;;
71734;SDS011;59577;52.122;5.406;2024-03-07T10:27:48;12.88;;;9.13;;
71734;SDS011;59577;52.122;5.406;2024-03-07T10:30:15;12.87;;;8.90;;
71734;SDS011;59577;52.122;5.406;2024-03-07T10:32:47;13.50;;;8.27;;
71734;SDS011;59577;52.122;5.406;2024-03-07T10:35:20;12.48;;;8.82;;
71734;SDS011;59577;52.122;5.406;2024-03-07T10:37:48;13.90;;;8.73;;
71734;SDS011;59577;52.122;5.406;2024-03-07T10:40:14;13.70;;;8.90;;
71734;SDS011;59577;52.122;5.406;2024-03-07T10:42:45;14.17;;;8.63;;
71734;SDS011;59577;52.122;5.406;2024-03-07T10:45:18;12.43;;;8.70;;
71734;SDS011;59577;52.122;5.406;2024-03-07T10:47:49;14.63;;;9.05;;
71734;SDS011;59577;52.122;5.406;2024-03-07T10:50:30;13.68;;;8.85;;
71734;SDS011;59577;52.122;5.406;2024-03-07T10:53:19;17.38;;;8.85;;
71734;SDS011;59577;52.122;5.406;2024-03-07T10:59:19;12.70;;;7.95;;
71734;SDS011;59577;52.122;5.406;2024-03-07T11:04:26;12.40;;;8.25;;
71734;SDS011;59577;52.122;5.406;2024-03-07T11:06:53;14.05;;;8.43;;
71734;SDS011;59577;52.122;5.406;2024-03-07T11:09:20;15.80;;;9.17;;
71734;SDS011;59577;52.122;5.406;2024-03-07T11:11:49;15.73;;;9.13;;
71734;SDS011;59577;52.122;5.406;2024-03-07T11:14:17;12.40;;;8.63;;
71734;SDS011;59577;52.122;5.406;2024-03-07T11:16:44;15.95;;;8.48;;
71734;SDS011;59577;52.122;5.406;2024-03-07T11:19:28;12.27;;;8.70;;
71734;SDS011;59577;52.122;5.406;2024-03-07T11:21:58;13.63;;;8.20;;
71734;SDS011;59577;52.122;5.406;2024-03-07T11:24:28;17.08;;;8.80;;
71734;SDS011;59577;52.122;5.406;2024-03-07T11:26:57;17.60;;;8.60;;
71734;SDS011;59577;52.122;5.406;2024-03-07T11:32:10;14.95;;;8.52;;
71734;SDS011;59577;52.122;5.406;2024-03-07T11:34:38;16.90;;;8.87;;
71734;SDS011;59577;52.122;5.406;2024-03-07T11:37:08;13.52;;;8.07;;
71734;SDS011;59577;52.122;5.406;2024-03-07T11:39:45;13.38;;;8.48;;
71734;SDS011;59577;52.122;5.406;2024-03-07T11:42:22;14.60;;;8.88;;
71734;SDS011;59577;52.122;5.406;2024-03-07T11:44:54;17.05;;;9.23;;
71734;SDS011;59577;52.122;5.406;2024-03-07T11:47:25;17.87;;;9.63;;
71734;SDS011;59577;52.122;5.406;2024-03-07T11:49:56;13.30;;;8.57;;
71734;SDS011;59577;52.122;5.406;2024-03-07T11:52:24;13.27;;;7.90;;
71734;SDS011;59577;52.122;5.406;2024-03-07T11:54:54;13.73;;;8.70;;
71734;SDS011;59577;52.122;5.406;2024-03-07T11:57:31;13.82;;;8.70;;
71734;SDS011;59577;52.122;5.406;2024-03-07T12:00:00;13.37;;;8.67;;
71734;SDS011;59577;52.122;5.406;2024-03-07T12:02:36;14.02;;;7.95;;
71734;SDS011;59577;52.122;5.406;2024-03-07T12:05:04;13.40;;;8.98;;
71734;SDS011;59577;52.122;5.406;2024-03-07T12:07:32;13.73;;;8.85;;
71734;SDS011;59577;52.122;5.406;2024-03-07T12:10:00;12.80;;;8.80;;
71734;SDS011;59577;52.122;5.406;2024-03-07T12:12:30;14.37;;;9.10;;
71734;SDS011;59577;52.122;5.406;2024-03-07T12:14:57;15.85;;;8.80;;
71734;SDS011;59577;52.122;5.406;2024-03-07T12:17:25;13.77;;;9.07;;
71734;SDS011;59577;52.122;5.406;2024-03-07T12:19:52;15.32;;;8.75;;
71734;SDS011;59577;52.122;5.406;2024-03-07T12:22:19;13.70;;;8.82;;
71734;SDS011;59577;52.122;5.406;2024-03-07T12:25:00;15.43;;;8.87;;
71734;SDS011;59577;52.122;5.406;2024-03-07T12:27:34;13.95;;;8.20;;
71734;SDS011;59577;52.122;5.406;2024-03-07T12:30:01;13.50;;;8.57;;
71734;SDS011;59577;52.122;5.406;2024-03-07T12:32:34;11.75;;;7.70;;
71734;SDS011;59577;52.122;5.406;2024-03-07T12:35:04;15.02;;;8.60;;
71734;SDS011;59577;52.122;5.406;2024-03-07T12:37:34;14.00;;;8.17;;
71734;SDS011;59577;52.122;5.406;2024-03-07T12:40:10;15.20;;;8.10;;
71734;SDS011;59577;52.122;5.406;2024-03-07T12:42:37;10.90;;;7.45;;
71734;SDS011;59577;52.122;5.406;2024-03-07T12:45:05;13.38;;;8.18;;
71734;SDS011;59577;52.122;5.406;2024-03-07T12:47:32;14.55;;;8.07;;
71734;SDS011;59577;52.122;5.406;2024-03-07T12:49:58;14.77;;;8.33;;
71734;SDS011;59577;52.122;5.406;2024-03-07T12:52:27;15.15;;;8.38;;
71734;SDS011;59577;52.122;5.406;2024-03-07T12:54:53;12.57;;;8.05;;
71734;SDS011;59577;52.122;5.406;2024-03-07T12:57:21;14.15;;;8.18;;
71734;SDS011;59577;52.122;5.406;2024-03-07T12:59:49;13.85;;;7.93;;
71734;SDS011;59577;52.122;5.406;2024-03-07T13:02:17;14.23;;;8.20;;
71734;SDS011;59577;52.122;5.406;2024-03-07T13:04:43;14.77;;;8.35;;
71734;SDS011;59577;52.122;5.406;2024-03-07T13:07:11;10.63;;;6.70;;
71734;SDS011;59577;52.122;5.406;2024-03-07T13:09:37;15.95;;;8.75;;
71734;SDS011;59577;52.122;5.406;2024-03-07T13:12:07;15.35;;;8.45;;
71734;SDS011;59577;52.122;5.406;2024-03-07T13:14:36;12.90;;;8.13;;
71734;SDS011;59577;52.122;5.406;2024-03-07T13:17:03;13.23;;;8.55;;
71734;SDS011;59577;52.122;5.406;2024-03-07T13:19:30;14.43;;;7.78;;
71734;SDS011;59577;52.122;5.406;2024-03-07T13:21:57;11.38;;;6.88;;
71734;SDS011;59577;52.122;5.406;2024-03-07T13:24:24;11.25;;;6.30;;
71734;SDS011;59577;52.122;5.406;2024-03-07T13:26:52;11.60;;;7.00;;
71734;SDS011;59577;52.122;5.406;2024-03-07T13:29:20;10.02;;;5.85;;
71734;SDS011;59577;52.122;5.406;2024-03-07T13:31:52;9.65;;;6.15;;
71734;SDS011;59577;52.122;5.406;2024-03-07T13:34:22;11.43;;;6.47;;
71734;SDS011;59577;52.122;5.406;2024-03-07T13:36:52;10.60;;;6.80;;
71734;SDS011;59577;52.122;5.406;2024-03-07T13:39:18;12.77;;;6.83;;
71734;SDS011;59577;52.122;5.406;2024-03-07T13:41:45;11.35;;;7.50;;
71734;SDS011;59577;52.122;5.406;2024-03-07T13:44:14;14.77;;;8.05;;
71734;SDS011;59577;52.122;5.406;2024-03-07T13:46:41;12.93;;;7.82;;
71734;SDS011;59577;52.122;5.406;2024-03-07T13:49:08;12.55;;;7.13;;
71734;SDS011;59577;52.122;5.406;2024-03-07T13:51:40;11.97;;;7.70;;
71734;SDS011;59577;52.122;5.406;2024-03-07T13:54:17;9.95;;;6.88;;
71734;SDS011;59577;52.122;5.406;2024-03-07T13:57:05;13.25;;;7.90;;
71734;SDS011;59577;52.122;5.406;2024-03-07T14:08:40;12.32;;;7.80;;
71734;SDS011;59577;52.122;5.406;2024-03-07T14:17:20;13.00;;;7.55;;
71734;SDS011;59577;52.122;5.406;2024-03-07T14:30:50;10.00;;;7.32;;
71734;SDS011;59577;52.122;5.406;2024-03-07T14:33:28;14.30;;;7.13;;
71734;SDS011;59577;52.122;5.406;2024-03-07T14:38:40;9.80;;;7.10;;
71734;SDS011;59577;52.122;5.406;2024-03-07T14:41:12;10.32;;;7.05;;
71734;SDS011;59577;52.122;5.406;2024-03-07T14:43:41;9.73;;;6.68;;
71734;SDS011;59577;52.122;5.406;2024-03-07T14:46:10;12.47;;;8.03;;
71734;SDS011;59577;52.122;5.406;2024-03-07T14:48:42;12.43;;;7.45;;
71734;SDS011;59577;52.122;5.406;2024-03-07T14:51:09;9.02;;;6.50;;
71734;SDS011;59577;52.122;5.406;2024-03-07T14:53:40;11.95;;;7.80;;
71734;SDS011;59577;52.122;5.406;2024-03-07T14:56:08;11.23;;;6.90;;
71734;SDS011;59577;52.122;5.406;2024-03-07T14:58:35;12.33;;;7.10;;
71734;SDS011;59577;52.122;5.406;2024-03-07T15:01:01;10.60;;;6.45;;
71734;SDS011;59577;52.122;5.406;2024-03-07T15:03:28;10.68;;;6.72;;
71734;SDS011;59577;52.122;5.406;2024-03-07T15:05:56;10.85;;;6.70;;
71734;SDS011;59577;52.122;5.406;2024-03-07T15:08:23;9.60;;;5.75;;
71734;SDS011;59577;52.122;5.406;2024-03-07T15:10:58;11.27;;;6.57;;
71734;SDS011;59577;52.122;5.406;2024-03-07T15:13:39;12.13;;;6.70;;
71734;SDS011;59577;52.122;5.406;2024-03-07T15:16:06;12.32;;;7.40;;